sensor_id;sensor_type;location;lat;lon;timestamp;P1;durP1;ratioP1;P2;durP2;ratioP2
9094;SDS011;4583;49.796;9.902;2023-10-19T00:02:50;14.80;;;10.90;;
9094;SDS011;4583;49.796;9.902;2023-10-19T00:12:56;17.30;;;11.40;;
9094;SDS011;4583;49.796;9.902;2023-10-19T00:23:07;17.63;;;11.57;;
9094;SDS011;4583;49.796;9.902;2023-10-19T00:33:11;15.80;;;11.10;;
9094;SDS011;4583;49.796;9.902;2023-10-19T00:43:30;18.60;;;11.23;;
9094;SDS011;4583;49.796;9.902;2023-10-19T00:53:36;17.80;;;11.90;;
9094;SDS011;4583;49.796;9.902;2023-10-19T01:03:38;20.53;;;12.00;;
9094;SDS011;4583;49.796;9.902;2023-10-19T01:13:41;16.23;;;12.10;;
9094;SDS011;4583;49.796;9.902;2023-10-19T01:23:46;19.20;;;12.63;;
9094;SDS011;4583;49.796;9.902;2023-10-19T01:33:49;18.70;;;12.10;;
9094;SDS011;4583;49.796;9.902;2023-10-19T01:43:51;18.13;;;12.37;;
9094;SDS011;4583;49.796;9.902;2023-10-19T01:53:55;17.77;;;12.23;;
9094;SDS011;4583;49.796;9.902;2023-10-19T02:03:59;18.77;;;12.50;;
9094;SDS011;4583;49.796;9.902;2023-10-19T02:14:01;17.50;;;13.60;;
9094;SDS011;4583;49.796;9.902;2023-10-19T02:24:06;18.17;;;12.70;;
9094;SDS011;4583;49.796;9.902;2023-10-19T02:34:09;19.33;;;14.33;;
9094;SDS011;4583;49.796;9.902;2023-10-19T02:44:14;18.23;;;13.93;;
9094;SDS011;4583;49.796;9.902;2023-10-19T02:54:20;19.73;;;14.57;;
9094;SDS011;4583;49.796;9.902;2023-10-19T03:04:26;20.83;;;14.60;;
9094;SDS011;4583;49.796;9.902;2023-10-19T03:14:32;21.87;;;15.20;;
9094;SDS011;4583;49.796;9.902;2023-10-19T03:24:34;20.30;;;14.77;;
9094;SDS011;4583;49.796;9.902;2023-10-19T03:34:42;22.10;;;15.57;;
9094;SDS011;4583;49.796;9.902;2023-10-19T03:44:48;21.40;;;15.43;;
9094;SDS011;4583;49.796;9.902;2023-10-19T03:54:50;21.33;;;15.60;;
9094;SDS011;4583;49.796;9.902;2023-10-19T04:04:52;25.37;;;16.90;;
9094;SDS011;4583;49.796;9.902;2023-10-19T04:14:57;21.87;;;15.40;;
9094;SDS011;4583;49.796;9.902;2023-10-19T04:25:02;21.23;;;15.50;;
9094;SDS011;4583;49.796;9.902;2023-10-19T04:35:07;19.90;;;14.70;;
9094;SDS011;4583;49.796;9.902;2023-10-19T04:45:14;21.83;;;15.80;;
9094;SDS011;4583;49.796;9.902;2023-10-19T04:55:16;23.10;;;16.50;;
9094;SDS011;4583;49.796;9.902;2023-10-19T05:05:18;27.03;;;18.57;;
9094;SDS011;4583;49.796;9.902;2023-10-19T05:15:19;27.07;;;17.20;;
9094;SDS011;4583;49.796;9.902;2023-10-19T05:25:21;26.47;;;18.13;;
9094;SDS011;4583;49.796;9.902;2023-10-19T05:35:25;28.23;;;18.20;;
9094;SDS011;4583;49.796;9.902;2023-10-19T05:45:27;26.43;;;18.17;;
9094;SDS011;4583;49.796;9.902;2023-10-19T05:55:29;28.77;;;18.27;;
9094;SDS011;4583;49.796;9.902;2023-10-19T06:05:32;27.73;;;18.47;;
9094;SDS011;4583;49.796;9.902;2023-10-19T06:15:35;28.10;;;18.07;;
9094;SDS011;4583;49.796;9.902;2023-10-19T06:25:37;27.30;;;18.30;;
9094;SDS011;4583;49.796;9.902;2023-10-19T06:35:39;24.73;;;17.67;;
9094;SDS011;4583;49.796;9.902;2023-10-19T06:45:41;27.50;;;18.33;;
9094;SDS011;4583;49.796;9.902;2023-10-19T06:55:46;26.23;;;18.33;;
9094;SDS011;4583;49.796;9.902;2023-10-19T07:05:47;26.60;;;17.33;;
9094;SDS011;4583;49.796;9.902;2023-10-19T07:15:50;27.13;;;18.23;;
9094;SDS011;4583;49.796;9.902;2023-10-19T07:25:53;28.77;;;18.13;;
9094;SDS011;4583;49.796;9.902;2023-10-19T07:36:01;27.47;;;18.23;;
9094;SDS011;4583;49.796;9.902;2023-10-19T07:46:08;25.03;;;17.83;;
9094;SDS011;4583;49.796;9.902;2023-10-19T07:56:09;29.83;;;17.97;;
9094;SDS011;4583;49.796;9.902;2023-10-19T08:06:11;28.43;;;18.33;;
9094;SDS011;4583;49.796;9.902;2023-10-19T08:16:13;30.30;;;20.10;;
9094;SDS011;4583;49.796;9.902;2023-10-19T08:26:15;29.13;;;19.73;;
9094;SDS011;4583;49.796;9.902;2023-10-19T08:36:17;31.30;;;19.60;;
9094;SDS011;4583;49.796;9.902;2023-10-19T08:46:23;31.30;;;20.20;;
9094;SDS011;4583;49.796;9.902;2023-10-19T08:56:26;34.80;;;21.27;;
9094;SDS011;4583;49.796;9.902;2023-10-19T09:06:28;35.23;;;21.67;;
9094;SDS011;4583;49.796;9.902;2023-10-19T09:16:30;32.10;;;21.03;;
9094;SDS011;4583;49.796;9.902;2023-10-19T09:26:32;37.67;;;21.97;;
9094;SDS011;4583;49.796;9.902;2023-10-19T09:36:33;27.83;;;20.77;;
9094;SDS011;4583;49.796;9.902;2023-10-19T09:46:37;36.03;;;21.37;;
9094;SDS011;4583;49.796;9.902;2023-10-19T09:56:42;34.80;;;21.60;;
9094;SDS011;4583;49.796;9.902;2023-10-19T10:16:59;36.10;;;22.87;;
9094;SDS011;4583;49.796;9.902;2023-10-19T10:27:06;43.43;;;24.37;;
9094;SDS011;4583;49.796;9.902;2023-10-19T10:37:09;47.93;;;24.67;;
9094;SDS011;4583;49.796;9.902;2023-10-19T10:47:16;46.50;;;23.83;;
9094;SDS011;4583;49.796;9.902;2023-10-19T10:57:22;44.50;;;22.90;;
9094;SDS011;4583;49.796;9.902;2023-10-19T11:07:24;47.77;;;24.23;;
9094;SDS011;4583;49.796;9.902;2023-10-19T11:17:28;50.13;;;24.73;;
9094;SDS011;4583;49.796;9.902;2023-10-19T11:27:34;43.10;;;24.27;;
9094;SDS011;4583;49.796;9.902;2023-10-19T11:48:06;36.67;;;21.53;;
9094;SDS011;4583;49.796;9.902;2023-10-19T11:58:08;35.97;;;21.50;;
9094;SDS011;4583;49.796;9.902;2023-10-19T12:08:13;35.70;;;21.30;;
9094;SDS011;4583;49.796;9.902;2023-10-19T12:18:15;31.53;;;19.13;;
9094;SDS011;4583;49.796;9.902;2023-10-19T12:28:17;39.90;;;20.37;;
9094;SDS011;4583;49.796;9.902;2023-10-19T12:38:19;30.53;;;20.00;;
9094;SDS011;4583;49.796;9.902;2023-10-19T12:48:21;31.27;;;18.80;;
9094;SDS011;4583;49.796;9.902;2023-10-19T12:58:26;31.23;;;19.67;;
9094;SDS011;4583;49.796;9.902;2023-10-19T13:08:30;38.33;;;20.93;;
9094;SDS011;4583;49.796;9.902;2023-10-19T13:18:32;37.47;;;21.03;;
9094;SDS011;4583;49.796;9.902;2023-10-19T13:28:37;37.47;;;22.10;;
9094;SDS011;4583;49.796;9.902;2023-10-19T13:38:40;35.83;;;22.47;;
9094;SDS011;4583;49.796;9.902;2023-10-19T13:48:43;38.00;;;23.50;;
9094;SDS011;4583;49.796;9.902;2023-10-19T13:58:47;44.23;;;24.77;;
9094;SDS011;4583;49.796;9.902;2023-10-19T14:08:49;41.47;;;22.87;;
9094;SDS011;4583;49.796;9.902;2023-10-19T14:18:51;38.57;;;24.10;;
9094;SDS011;4583;49.796;9.902;2023-10-19T14:28:53;44.30;;;24.77;;
9094;SDS011;4583;49.796;9.902;2023-10-19T14:38:56;50.23;;;28.40;;
9094;SDS011;4583;49.796;9.902;2023-10-19T14:48:58;47.03;;;28.23;;
9094;SDS011;4583;49.796;9.902;2023-10-19T14:59:00;44.70;;;27.33;;
9094;SDS011;4583;49.796;9.902;2023-10-19T15:09:02;46.20;;;25.77;;
9094;SDS011;4583;49.796;9.902;2023-10-19T15:19:05;44.03;;;24.97;;
9094;SDS011;4583;49.796;9.902;2023-10-19T15:29:07;58.47;;;31.53;;
9094;SDS011;4583;49.796;9.902;2023-10-19T15:39:10;59.83;;;31.13;;
9094;SDS011;4583;49.796;9.902;2023-10-19T15:49:12;20.70;;;14.53;;
9094;SDS011;4583;49.796;9.902;2023-10-19T15:59:18;20.77;;;13.40;;
9094;SDS011;4583;49.796;9.902;2023-10-19T16:09:20;18.90;;;13.43;;
9094;SDS011;4583;49.796;9.902;2023-10-19T16:19:22;18.23;;;13.67;;
9094;SDS011;4583;49.796;9.902;2023-10-19T16:29:25;20.20;;;15.13;;
9094;SDS011;4583;49.796;9.902;2023-10-19T16:39:27;22.10;;;14.43;;
9094;SDS011;4583;49.796;9.902;2023-10-19T16:49:30;26.03;;;15.97;;
9094;SDS011;4583;49.796;9.902;2023-10-19T16:59:36;21.73;;;15.17;;
9094;SDS011;4583;49.796;9.902;2023-10-19T17:09:38;24.13;;;16.37;;
9094;SDS011;4583;49.796;9.902;2023-10-19T17:19:41;24.67;;;16.50;;
9094;SDS011;4583;49.796;9.902;2023-10-19T17:29:43;22.10;;;16.07;;
9094;SDS011;4583;49.796;9.902;2023-10-19T17:39:45;23.53;;;16.20;;
9094;SDS011;4583;49.796;9.902;2023-10-19T17:49:47;25.07;;;18.10;;
9094;SDS011;4583;49.796;9.902;2023-10-19T17:59:49;30.43;;;17.67;;
9094;SDS011;4583;49.796;9.902;2023-10-19T18:09:51;23.03;;;17.87;;
9094;SDS011;4583;49.796;9.902;2023-10-19T18:19:54;24.93;;;18.07;;
9094;SDS011;4583;49.796;9.902;2023-10-19T18:29:56;23.40;;;17.93;;
9094;SDS011;4583;49.796;9.902;2023-10-19T18:40:01;25.93;;;17.90;;
9094;SDS011;4583;49.796;9.902;2023-10-19T18:50:04;26.47;;;18.10;;
9094;SDS011;4583;49.796;9.902;2023-10-19T19:00:29;22.60;;;16.83;;
9094;SDS011;4583;49.796;9.902;2023-10-19T19:10:34;23.10;;;16.13;;
9094;SDS011;4583;49.796;9.902;2023-10-19T19:20:37;19.93;;;16.53;;
9094;SDS011;4583;49.796;9.902;2023-10-19T19:30:42;22.03;;;16.20;;
9094;SDS011;4583;49.796;9.902;2023-10-19T19:40:44;21.87;;;16.50;;
9094;SDS011;4583;49.796;9.902;2023-10-19T19:50:47;24.20;;;16.60;;
9094;SDS011;4583;49.796;9.902;2023-10-19T20:00:48;27.77;;;16.50;;
9094;SDS011;4583;49.796;9.902;2023-10-19T20:10:51;20.83;;;15.53;;
9094;SDS011;4583;49.796;9.902;2023-10-19T20:20:54;21.50;;;16.23;;
9094;SDS011;4583;49.796;9.902;2023-10-19T20:30:57;25.37;;;17.00;;
9094;SDS011;4583;49.796;9.902;2023-10-19T20:41:00;22.10;;;15.73;;
9094;SDS011;4583;49.796;9.902;2023-10-19T20:51:02;21.37;;;16.27;;
9094;SDS011;4583;49.796;9.902;2023-10-19T21:01:07;23.40;;;16.03;;
9094;SDS011;4583;49.796;9.902;2023-10-19T21:11:18;23.10;;;16.43;;
9094;SDS011;4583;49.796;9.902;2023-10-19T21:21:23;25.37;;;16.43;;
9094;SDS011;4583;49.796;9.902;2023-10-19T21:31:24;21.63;;;16.07;;
9094;SDS011;4583;49.796;9.902;2023-10-19T21:41:27;20.10;;;15.53;;
9094;SDS011;4583;49.796;9.902;2023-10-19T21:51:29;21.83;;;15.43;;
9094;SDS011;4583;49.796;9.902;2023-10-19T22:01:31;22.23;;;15.83;;
9094;SDS011;4583;49.796;9.902;2023-10-19T22:11:33;22.33;;;16.20;;
9094;SDS011;4583;49.796;9.902;2023-10-19T22:21:35;21.23;;;15.37;;
9094;SDS011;4583;49.796;9.902;2023-10-19T22:31:37;22.17;;;15.07;;
9094;SDS011;4583;49.796;9.902;2023-10-19T22:41:39;22.40;;;15.70;;
9094;SDS011;4583;49.796;9.902;2023-10-19T22:51:42;27.57;;;16.00;;
9094;SDS011;4583;49.796;9.902;2023-10-19T23:01:44;22.77;;;15.77;;
9094;SDS011;4583;49.796;9.902;2023-10-19T23:11:46;28.97;;;16.90;;
9094;SDS011;4583;49.796;9.902;2023-10-19T23:21:53;19.93;;;15.10;;
9094;SDS011;4583;49.796;9.902;2023-10-19T23:31:55;21.10;;;15.33;;
9094;SDS011;4583;49.796;9.902;2023-10-19T23:41:57;21.67;;;15.73;;
9094;SDS011;4583;49.796;9.902;2023-10-19T23:52:00;23.60;;;14.80;;
